首页
METAR-TAF:

METAR-TAF

机场 :

图森, 亞利桑那州, 美国

纬度: 32-07-53N, 经度: 110-57-19W, 海拔: 805米

当前天气观测

该预报发布于41分钟前的06:53 UTC
风速8节,风向东南
温度 26°C
湿度 74%
气压 1016 hPa
能見度: 16.1公里
天空无云

METAR: KTUS 220653Z 13008KT 10SM CLR 26/21 A2999 RMK AO2 SLP102 T02610206 403940261

时间: 00:34 (07:34 UTC)

预报

该预报发布于2小时和14分钟前的05:20 UTC
预报有效从22日的 06点(UTC)到 23日的 06点(UTC)
风速7节,风向东南
能見度: 10公里
散云层高于14000英尺
阴天层高于20000英尺
从 22日的 1400点(UTC)
风速8节,风向东南
能見度: 10公里
散云层高于14000英尺
散云层高于25000英尺
从 22日的 1800点(UTC)
风速7节,风向东转东南
能見度: 10公里
散云层高于10000英尺
从 22日的 2200点(UTC)
风速7节,风向东南
能見度: 10公里
散云层高于9000英尺
散云层高于14000英尺
从 23日的 0100点(UTC)
风速8节,风向南转南东
能見度: 10公里
散云层高于9000英尺
多云层高于14000英尺
附近有阵雨,

TAF: KTUS 220520Z 2206/2306 14007KT P6SM SCT140 OVC200 FM221400 13008KT P6SM SCT140 SCT250 FM221800 12007KT P6SM SCT100 FM222200 13007KT P6SM SCT090 SCT140 FM230100 15008KT P6SM VCSH SCT090 BKN140

超过4000个机场的气象观测和天气预报(METAR&TAF报告)。

可查询的气象台以黄色和红色小点在地图上表示。

将鼠标移到小点上方,可查看气象台名称。

然后点击查看天气观测和预报。

如需切换地图:点击带黑十字的绿色按钮放大地图;点击带横线的绿色按钮缩小地图;或者点击绿色箭头查看邻近地区的地图。


METAR-TAF: